Aeroporto :
LOGIN :

Iscrizione | Disclaimer

   EN    FR    IT 

 










Sommario :    VFR   VFR Marginale   IFR   IFR Intensivo   IFR Molto Intensivo
Visibilità : 
Base nubi : 
>= 8 km
>= 3000ft
5 / 8 km
1000 / 3000 ft
1500m / 5 km
500 / 1000 ft
800 / 1500m
200 / 500 ft
< 800m
< 200 ft
Simboli :   Temporali  Nebbia  Neve Forte  Precipitazioni Forti  Vento > 20 kt
SIGMETs :   Varie  Temporali  Ghiacco  Turbolenza  Onda orograficha  Ceneri Vulcaniche






- Altitudine del aeroporto : -13 ft
- Codice IATA : LEY


EHLE - Lelystad

ULTIMO METAR :
  • 131455Z AUTO 24018KT 210V270 9999 FEW017 SCT033 BKN037 16/13 Q1011 TEMPO 7000 SHRA SCT018TCU

METARs OBSOLETI :
  • 131425Z AUTO 24016KT 210V270 9999 BKN016 OVC020 16/13 Q1011 TEMPO 7000 SHRA SCT018TCU
  • 131355Z AUTO 25017KT 210V270 9999 SCT017 BKN026 BKN031 17/13 Q1010 TEMPO 7000 SHRA SCT018TCU
  • 131325Z AUTO 25018KT 220V280 9999 FEW016 SCT020 BKN025 16/13 Q1010 TEMPO 6000 SHRA SCT018CB
  • 131255Z AUTO 25019KT 210V280 9999 FEW017 SCT021 BKN036 17/13 Q1010 TEMPO 6000 SHRA SCT018CB
  • 131225Z AUTO 25018KT 220V280 9999 SCT017 BKN020 BKN023 18/14 Q1010 TEMPO 6000 SHRA SCT018CB
  • 131155Z AUTO 25019KT 9999 SCT018 SCT032 18/13 Q1010 TEMPO 6000 SHRA SCT018CB
  • 131125Z AUTO 25019KT 220V290 9999 SCT017 BKN020 BKN027 18/14 Q1009 TEMPO 6000 SHRA SCT018CB
  • 131055Z AUTO 26019KT 9999 FEW014 SCT016 BKN023 17/14 Q1009 TEMPO 6000 SHRA
  • 131025Z AUTO 25014KT 230V290 9999 -RA FEW038 17/15 Q1009 TEMPO 6000 SHRA SCT018CB

TAF TAF EHLE
Valido dal 13 a 12 ore il 14 a 18 ore UTC


131111Z 1312/1418 24015KT 9999 SCT018 BKN025
TEMPO 1312/1317 6000 SHRA BKN014 SCT018CB
BECMG 1316/1319 20009KT
BECMG 1407/1410 24015KT



MetMap, La meteo Aeronautica in un colpo d'occhio ! - Copyright ORBIFLY Dicembre 2007 - Disclaimer

ORBIFLY MET'MAP TEAM :

Programmazione e sviluppo : Alexandra Zaïnal
Concezione : Baudouin d'Aumeries
Supporto tecnico e logistico : Manuel Goepfert
Aiuto : Marc-Olivier Méhu
Aiuto per la traduzione : Arnaldo La Scala




FONTI E CREDITI :

   NOAA